Rockwood, New York
Current Conditions -  °F | °C
As of 1:35 PM on Wednesday 26 Nov 2014 (Local Time) from KNY0 Reporting Station
Overcast Overcast  
Wind Chill: 24°   Ceiling: 500
Heat Index: 29°   Visibility: 0.5mi
Dew Point: 28°   Wind: 5mph
Humidity: 96%   Direction: 20°NNE
Pressure: 30.1"   Gusts: NA
Location:  43.0176°N, 74.3982°W
Report Text: KNY0 261835Z AUTO 02004KT 1/2SM OVC005 M01/M02 A3010 RMK AO2 P0002 T10151021
Loading
Personal Weather Stations






























Interactive Weather Map New forecast layout! Learn more

10-Day Weather Forecast

Advertisements
Track Severe Weather on mobile